Time;durP1;ratioP1;P1;durP2;ratioP2;P2;SDS_P1;SDS_P2;PMS_P1;PMS_P2;Temp;Humidity;BMP_temperature;BMP_pressure;BME280_temperature;BME280_humidity;BME280_pressure;Samples;Min_cycle;Max_cycle;Signal;HPM_P1;HPM_P2
2023/04/16 00:02:17;;;;;;;7.72;4.53;;;9.90;99.90;;;;;;5134437;27;20084;-76
2023/04/16 00:04:43;;;;;;;9.93;4.72;;;9.90;99.90;;;;;;5135064;27;20031;-75
2023/04/16 00:07:09;;;;;;;8.00;4.40;;;9.90;99.90;;;;;;5134257;27;20102;-76
2023/04/16 00:09:34;;;;;;;6.47;4.53;;;9.90;99.90;;;;;;5135063;27;20019;-76
2023/04/16 00:12:00;;;;;;;8.25;4.40;;;9.90;99.90;;;;;;5134159;27;20046;-76
2023/04/16 00:14:26;;;;;;;7.60;5.80;;;9.90;99.90;;;;;;5134887;27;20031;-76
2023/04/16 00:16:52;;;;;;;16.45;13.88;;;9.90;99.90;;;;;;5134504;27;20031;-75
2023/04/16 00:19:17;;;;;;;10.73;9.73;;;9.90;99.90;;;;;;5134257;27;20019;-75
2023/04/16 00:21:43;;;;;;;7.70;5.22;;;9.90;99.90;;;;;;5134763;27;20517;-74
2023/04/16 00:24:09;;;;;;;11.30;5.82;;;9.90;99.90;;;;;;5133735;27;20502;-75
2023/04/16 00:26:35;;;;;;;11.23;8.07;;;9.90;99.90;;;;;;5134692;27;20038;-74
2023/04/16 00:29:00;;;;;;;14.90;9.23;;;9.90;99.90;;;;;;5134094;27;20071;-76
2023/04/16 00:31:31;;;;;;;10.40;8.60;;;9.90;99.90;;;;;;5134633;27;20027;-74
2023/04/16 00:33:58;;;;;;;12.57;9.73;;;9.90;99.90;;;;;;5116175;27;20031;-75
2023/04/16 00:36:25;;;;;;;13.35;8.77;;;9.90;99.90;;;;;;5134271;27;20050;-75
2023/04/16 00:38:51;;;;;;;12.07;10.68;;;10.00;99.90;;;;;;5134123;27;20023;-74
2023/04/16 00:41:17;;;;;;;12.50;8.50;;;10.00;99.90;;;;;;5133266;27;20396;-74
2023/04/16 00:43:43;;;;;;;8.13;6.43;;;10.00;99.90;;;;;;5133976;27;20035;-74
2023/04/16 00:46:09;;;;;;;13.23;5.47;;;10.00;99.90;;;;;;5134009;27;20118;-75
2023/04/16 00:48:36;;;;;;;8.52;4.72;;;10.00;99.90;;;;;;5134083;27;20023;-74
2023/04/16 00:51:07;;;;;;;8.52;4.50;;;10.00;99.90;;;;;;5133505;27;20030;-75
2023/04/16 00:53:33;;;;;;;8.70;5.72;;;10.00;99.90;;;;;;5132799;27;20077;-74
2023/04/16 00:56:05;;;;;;;12.73;10.70;;;10.00;99.90;;;;;;5134062;27;20031;-74
2023/04/16 00:58:32;;;;;;;14.13;11.90;;;10.00;99.90;;;;;;5134104;27;20087;-74
2023/04/16 01:00:59;;;;;;;10.70;8.93;;;10.00;99.90;;;;;;5134125;27;20028;-74
2023/04/16 01:03:38;;;;;;;10.82;7.00;;;10.00;99.90;;;;;;5133570;27;20031;-74
2023/04/16 01:06:06;;;;;;;8.57;4.90;;;10.10;99.90;;;;;;5133458;27;20019;-75
2023/04/16 01:08:32;;;;;;;8.07;4.57;;;10.00;99.90;;;;;;5133912;27;20023;-75
2023/04/16 01:10:58;;;;;;;6.80;4.72;;;10.00;99.90;;;;;;5133738;27;20107;-74
2023/04/16 01:13:23;;;;;;;11.32;7.75;;;10.00;99.90;;;;;;5133020;27;20111;-74
2023/04/16 01:15:49;;;;;;;15.25;11.90;;;10.00;99.90;;;;;;5133687;27;20019;-74
2023/04/16 01:18:16;;;;;;;10.68;8.60;;;10.00;99.90;;;;;;5132870;27;20034;-74
2023/04/16 01:20:41;;;;;;;11.73;7.47;;;10.00;99.90;;;;;;5133554;27;20625;-74
2023/04/16 01:23:07;;;;;;;16.27;7.72;;;10.00;99.90;;;;;;5132386;27;20023;-76
2023/04/16 01:25:33;;;;;;;13.10;7.82;;;10.00;99.90;;;;;;5133755;27;20023;-74
2023/04/16 01:27:59;;;;;;;8.80;7.05;;;9.90;99.90;;;;;;5133442;27;20062;-75
2023/04/16 01:30:25;;;;;;;9.55;7.13;;;9.90;99.90;;;;;;5133059;27;20023;-76
2023/04/16 01:32:50;;;;;;;9.68;7.78;;;9.90;99.90;;;;;;5114770;27;20320;-75
2023/04/16 01:35:19;;;;;;;12.63;7.65;;;9.90;99.90;;;;;;5132682;27;20031;-76
2023/04/16 01:37:45;;;;;;;12.20;7.20;;;9.80;99.90;;;;;;5133419;27;20091;-77
2023/04/16 01:40:11;;;;;;;14.05;12.02;;;9.90;99.90;;;;;;5132659;27;20027;-76
2023/04/16 01:42:37;;;;;;;14.85;10.07;;;9.90;99.90;;;;;;5132604;27;20023;-77
2023/04/16 01:45:03;;;;;;;14.48;9.52;;;9.90;99.90;;;;;;5132940;27;20039;-81
2023/04/16 01:47:29;;;;;;;13.30;10.48;;;9.90;99.90;;;;;;5133076;27;20455;-76
2023/04/16 01:49:55;;;;;;;10.55;7.90;;;9.90;99.90;;;;;;5133334;27;20023;-76
2023/04/16 01:52:21;;;;;;;9.00;7.88;;;9.90;99.90;;;;;;5132443;27;20440;-76
2023/04/16 01:54:47;;;;;;;10.00;8.25;;;9.90;99.90;;;;;;5132971;27;20115;-75
2023/04/16 01:57:12;;;;;;;12.63;8.95;;;9.90;99.90;;;;;;5132623;27;20455;-75
2023/04/16 01:59:38;;;;;;;13.23;8.75;;;9.90;99.90;;;;;;5114620;27;20023;-75
2023/04/16 02:02:12;;;;;;;12.75;9.82;;;9.90;99.90;;;;;;5132170;27;20403;-78
2023/04/16 02:04:42;;;;;;;13.13;8.25;;;9.90;99.90;;;;;;5132640;27;20112;-75
2023/04/16 02:07:08;;;;;;;9.68;7.68;;;9.90;99.90;;;;;;5132042;27;20027;-75
2023/04/16 02:09:35;;;;;;;10.60;7.30;;;9.90;99.90;;;;;;5132482;27;20056;-74
2023/04/16 02:12:04;;;;;;;12.23;6.82;;;9.90;99.90;;;;;;5132596;27;20024;-75
2023/04/16 02:14:32;;;;;;;12.45;7.18;;;10.00;99.90;;;;;;5132070;27;20046;-75
2023/04/16 02:16:59;;;;;;;9.68;6.45;;;10.00;99.90;;;;;;5132721;27;20105;-75
2023/04/16 02:19:25;;;;;;;11.57;7.10;;;9.90;99.90;;;;;;5131950;27;20464;-76
2023/04/16 02:21:52;;;;;;;13.73;7.53;;;9.90;99.90;;;;;;5132346;27;20414;-76
2023/04/16 02:24:18;;;;;;;12.82;7.03;;;9.90;99.90;;;;;;5131071;27;20381;-76
2023/04/16 02:26:46;;;;;;;10.48;6.90;;;9.90;99.90;;;;;;5113906;27;20451;-75
2023/04/16 02:29:12;;;;;;;9.20;6.93;;;9.90;99.90;;;;;;5131798;27;20075;-77
2023/04/16 02:31:38;;;;;;;10.38;6.78;;;9.90;99.90;;;;;;5113697;27;20030;-75
2023/04/16 02:34:04;;;;;;;8.73;6.65;;;9.90;99.90;;;;;;5132154;27;20310;-77
2023/04/16 02:36:31;;;;;;;14.65;11.23;;;10.00;99.90;;;;;;5131377;27;20524;-77
2023/04/16 02:38:57;;;;;;;15.80;10.85;;;10.00;99.90;;;;;;5113616;27;20049;-77
2023/04/16 02:41:23;;;;;;;15.10;12.23;;;10.00;99.90;;;;;;5131478;27;20027;-77
2023/04/16 02:43:49;;;;;;;16.08;12.02;;;10.10;99.90;;;;;;5131679;27;20066;-79
2023/04/16 02:46:15;;;;;;;12.80;10.23;;;10.00;99.90;;;;;;5131417;27;20027;-78
2023/04/16 02:48:40;;;;;;;12.93;9.93;;;10.10;99.90;;;;;;5132139;27;20019;-77
2023/04/16 02:51:06;;;;;;;19.77;12.40;;;10.10;99.90;;;;;;5131751;27;20031;-76
2023/04/16 02:53:32;;;;;;;11.82;10.55;;;10.10;99.90;;;;;;5112800;27;20077;-77
2023/04/16 02:55:57;;;;;;;17.33;11.18;;;10.10;99.90;;;;;;5131852;27;20080;-76
2023/04/16 02:58:24;;;;;;;13.98;9.52;;;10.10;99.90;;;;;;5131017;27;20023;-76
2023/04/16 03:00:51;;;;;;;18.30;11.38;;;10.10;99.90;;;;;;5113538;27;20027;-78
2023/04/16 03:03:17;;;;;;;13.48;9.57;;;10.10;99.90;;;;;;5131201;27;20023;-78
2023/04/16 03:05:44;;;;;;;12.57;11.10;;;10.10;99.90;;;;;;5131461;27;20023;-77
2023/04/16 03:08:10;;;;;;;14.48;11.15;;;10.10;99.90;;;;;;5131349;27;20035;-80
2023/04/16 03:10:36;;;;;;;19.92;14.50;;;10.10;99.90;;;;;;5131214;27;20436;-76
2023/04/16 03:13:02;;;;;;;14.05;11.90;;;10.10;99.90;;;;;;5131498;27;20028;-76
2023/04/16 03:15:29;;;;;;;17.55;13.60;;;10.10;99.90;;;;;;5130026;27;20057;-77
2023/04/16 03:17:55;;;;;;;14.98;11.38;;;10.10;99.90;;;;;;5131636;27;20054;-76
2023/04/16 03:20:21;;;;;;;16.10;10.90;;;10.10;99.90;;;;;;5130852;27;20023;-76
2023/04/16 03:22:47;;;;;;;13.75;10.88;;;10.10;99.90;;;;;;5131746;27;20115;-76
2023/04/16 03:25:12;;;;;;;13.60;10.60;;;10.10;99.90;;;;;;5130640;27;20043;-79
2023/04/16 03:27:38;;;;;;;18.35;11.07;;;10.10;99.90;;;;;;5131283;27;20452;-76
2023/04/16 03:30:09;;;;;;;14.00;9.85;;;10.10;99.90;;;;;;5131237;27;20333;-75
2023/04/16 03:32:35;;;;;;;14.45;10.32;;;10.10;99.90;;;;;;5130714;27;20498;-76
2023/04/16 03:35:02;;;;;;;12.93;9.85;;;10.10;99.90;;;;;;5131099;27;20472;-76
2023/04/16 03:37:28;;;;;;;14.80;9.10;;;10.10;99.90;;;;;;5130908;27;20031;-75
2023/04/16 03:39:53;;;;;;;12.65;8.50;;;10.20;99.90;;;;;;5130833;28;20148;-76
2023/04/16 03:42:19;;;;;;;12.32;9.18;;;10.20;99.90;;;;;;5130417;28;20433;-76
2023/04/16 03:44:45;;;;;;;14.52;9.25;;;10.20;99.90;;;;;;5131110;28;20110;-75
2023/04/16 03:47:10;;;;;;;19.45;11.55;;;10.20;99.90;;;;;;5131474;28;20357;-75
2023/04/16 03:49:36;;;;;;;14.70;11.77;;;10.20;99.90;;;;;;5130680;28;20035;-75
2023/04/16 03:52:02;;;;;;;19.73;12.20;;;10.20;99.90;;;;;;5131980;28;20502;-75
2023/04/16 03:54:27;;;;;;;19.85;13.23;;;10.20;99.90;;;;;;5130772;28;20079;-75
2023/04/16 03:56:53;;;;;;;21.05;14.27;;;10.30;99.90;;;;;;5131405;28;20100;-75
2023/04/16 03:59:19;;;;;;;20.25;15.95;;;10.30;99.90;;;;;;5112174;28;20024;-75
2023/04/16 04:01:45;;;;;;;30.98;23.23;;;10.30;99.90;;;;;;5131211;28;20513;-75
2023/04/16 04:04:10;;;;;;;27.55;21.83;;;10.30;99.90;;;;;;5131644;28;20084;-74
2023/04/16 04:06:36;;;;;;;21.25;14.55;;;10.30;99.90;;;;;;5131348;28;20024;-75
2023/04/16 04:09:02;;;;;;;21.10;15.02;;;10.30;99.90;;;;;;5131514;28;20409;-74
2023/04/16 04:11:28;;;;;;;18.63;13.40;;;10.30;99.90;;;;;;5130737;28;20061;-74
2023/04/16 04:13:54;;;;;;;18.58;12.75;;;10.30;99.90;;;;;;5112980;28;20444;-75
2023/04/16 04:16:19;;;;;;;20.10;13.48;;;10.30;99.90;;;;;;5130552;28;20375;-75
2023/04/16 04:18:45;;;;;;;17.15;13.38;;;10.30;99.90;;;;;;5131060;28;20050;-75
2023/04/16 04:21:11;;;;;;;23.05;14.30;;;10.30;99.90;;;;;;5131065;28;20123;-75
2023/04/16 04:23:37;;;;;;;21.05;14.25;;;10.30;99.90;;;;;;5129937;28;20472;-75
2023/04/16 04:26:04;;;;;;;20.00;15.02;;;10.30;99.90;;;;;;5130821;27;20119;-76
2023/04/16 04:28:31;;;;;;;23.85;14.60;;;10.20;99.90;;;;;;5134368;27;20050;-76
2023/04/16 04:30:57;;;;;;;21.27;15.95;;;10.20;99.90;;;;;;5134608;27;20038;-76
2023/04/16 04:33:27;;;;;;;25.73;16.48;;;10.30;99.90;;;;;;5134268;27;20046;-75
2023/04/16 04:35:54;;;;;;;18.90;14.73;;;10.30;99.90;;;;;;5134681;27;20352;-75
2023/04/16 04:38:23;;;;;;;23.45;15.30;;;10.30;99.90;;;;;;5134176;27;20034;-76
2023/04/16 04:40:50;;;;;;;21.05;13.65;;;10.30;99.90;;;;;;5134454;27;20083;-75
2023/04/16 04:43:16;;;;;;;22.55;15.27;;;10.30;99.90;;;;;;5134165;27;20103;-79
2023/04/16 04:45:42;;;;;;;15.48;12.75;;;10.30;99.90;;;;;;5134157;27;20391;-75
2023/04/16 04:48:07;;;;;;;21.35;15.90;;;10.30;99.90;;;;;;5134403;27;20025;-75
2023/04/16 04:50:33;;;;;;;24.77;17.67;;;10.30;99.90;;;;;;5115214;27;20053;-75
2023/04/16 04:52:59;;;;;;;23.70;17.63;;;10.30;99.90;;;;;;5134368;27;20023;-75
2023/04/16 04:55:25;;;;;;;29.35;17.45;;;10.40;99.90;;;;;;5133474;27;20038;-76
2023/04/16 04:57:50;;;;;;;21.67;15.85;;;10.30;99.90;;;;;;5134363;27;20020;-76
2023/04/16 05:00:16;;;;;;;22.50;15.57;;;10.40;99.90;;;;;;5134234;27;20027;-75
2023/04/16 05:02:42;;;;;;;27.52;21.55;;;10.40;99.90;;;;;;5133708;27;20097;-75
2023/04/16 05:05:08;;;;;;;33.85;24.40;;;10.40;99.90;;;;;;5134164;27;20413;-75
2023/04/16 05:07:33;;;;;;;32.97;23.63;;;10.40;99.90;;;;;;5114924;27;20023;-75
2023/04/16 05:09:59;;;;;;;35.85;23.73;;;10.40;99.90;;;;;;5133683;27;20098;-75
2023/04/16 05:12:25;;;;;;;29.10;21.70;;;10.40;99.90;;;;;;5133141;27;20037;-75
2023/04/16 05:14:51;;;;;;;31.08;22.80;;;10.40;99.90;;;;;;5115334;27;20057;-75
2023/04/16 05:17:17;;;;;;;32.00;24.23;;;10.40;99.90;;;;;;5133704;27;20031;-75
2023/04/16 05:19:42;;;;;;;32.20;22.70;;;10.40;99.90;;;;;;5133357;27;20083;-75
2023/04/16 05:22:08;;;;;;;25.75;18.10;;;10.30;99.90;;;;;;5133766;27;20023;-74
2023/04/16 05:24:34;;;;;;;25.20;17.20;;;10.40;99.90;;;;;;5132815;27;20167;-74
2023/04/16 05:27:00;;;;;;;19.83;14.40;;;10.30;99.90;;;;;;5133501;27;20470;-74
2023/04/16 05:29:26;;;;;;;24.63;16.50;;;10.40;99.90;;;;;;5133049;27;20336;-75
2023/04/16 05:31:52;;;;;;;20.17;15.23;;;10.40;99.90;;;;;;5133503;27;20042;-75
2023/04/16 05:34:17;;;;;;;27.50;15.07;;;10.40;99.90;;;;;;5133589;27;20035;-75
2023/04/16 05:36:43;;;;;;;22.85;14.75;;;10.40;99.90;;;;;;5132613;27;20507;-74
2023/04/16 05:39:09;;;;;;;23.27;14.38;;;10.40;99.90;;;;;;5132865;27;20388;-74
2023/04/16 05:41:35;;;;;;;24.98;15.55;;;10.40;99.90;;;;;;5132788;27;20020;-74
2023/04/16 05:44:01;;;;;;;17.05;12.65;;;10.40;99.90;;;;;;5133638;27;20031;-74
2023/04/16 05:46:26;;;;;;;26.63;16.95;;;10.40;99.90;;;;;;5132996;27;20464;-75
2023/04/16 05:48:52;;;;;;;21.65;14.95;;;10.50;99.90;;;;;;5132916;27;20462;-74
2023/04/16 05:51:18;;;;;;;28.33;17.02;;;10.50;99.90;;;;;;5133435;27;20023;-73
2023/04/16 05:53:44;;;;;;;22.60;17.20;;;10.50;99.90;;;;;;5132803;27;20163;-74
2023/04/16 05:56:09;;;;;;;25.50;19.05;;;10.50;99.90;;;;;;5132980;27;20156;-74
2023/04/16 05:58:35;;;;;;;26.05;17.70;;;10.60;99.90;;;;;;5132347;27;20027;-74
2023/04/16 06:01:01;;;;;;;27.27;16.60;;;10.50;99.90;;;;;;5114426;27;20027;-74
2023/04/16 06:03:26;;;;;;;27.02;15.70;;;10.60;99.90;;;;;;5113871;27;20111;-74
2023/04/16 06:05:52;;;;;;;23.95;16.33;;;10.60;99.90;;;;;;5133202;27;20030;-74
2023/04/16 06:08:18;;;;;;;19.45;14.63;;;10.60;99.90;;;;;;5132943;27;20127;-73
2023/04/16 06:10:48;;;;;;;22.33;16.20;;;10.60;99.90;;;;;;5132427;27;20162;-73
2023/04/16 06:13:13;;;;;;;26.80;17.80;;;10.60;99.90;;;;;;5132827;27;20103;-74
2023/04/16 06:15:39;;;;;;;25.73;16.63;;;10.70;99.90;;;;;;5132130;27;20481;-73
2023/04/16 06:18:05;;;;;;;31.67;16.83;;;10.70;99.90;;;;;;5132376;27;20051;-73
2023/04/16 06:20:31;;;;;;;18.92;13.80;;;10.80;99.90;;;;;;5132032;27;20045;-74
2023/04/16 06:22:56;;;;;;;18.92;13.35;;;10.70;99.90;;;;;;5132072;27;20041;-74
2023/04/16 06:25:22;;;;;;;20.75;13.15;;;10.80;99.90;;;;;;5132503;27;20035;-74
2023/04/16 06:27:48;;;;;;;22.33;13.20;;;10.80;99.90;;;;;;5113647;27;20122;-74
2023/04/16 06:30:15;;;;;;;22.83;13.93;;;10.80;99.90;;;;;;5132392;27;20129;-73
2023/04/16 06:32:44;;;;;;;24.95;14.40;;;10.90;99.90;;;;;;5131798;27;20103;-74
2023/04/16 06:35:10;;;;;;;24.00;16.70;;;10.90;99.90;;;;;;5132241;27;20027;-73
2023/04/16 06:37:36;;;;;;;17.27;12.23;;;10.90;99.90;;;;;;5131817;27;20030;-74
2023/04/16 06:40:03;;;;;;;15.48;11.13;;;11.00;99.90;;;;;;5132378;27;20023;-74
2023/04/16 06:42:28;;;;;;;16.42;10.68;;;11.00;99.90;;;;;;5131605;27;20031;-75
2023/04/16 06:44:54;;;;;;;17.23;10.90;;;11.00;99.90;;;;;;5113923;27;20035;-73
2023/04/16 06:47:20;;;;;;;12.98;8.43;;;11.10;99.90;;;;;;5131751;27;20039;-73
2023/04/16 06:49:45;;;;;;;12.52;8.32;;;11.10;99.90;;;;;;5130614;27;20131;-75
2023/04/16 06:52:11;;;;;;;13.10;9.20;;;11.20;99.90;;;;;;5132244;27;20022;-74
2023/04/16 06:54:38;;;;;;;15.52;10.25;;;11.20;99.90;;;;;;5131390;27;20524;-75
2023/04/16 06:57:04;;;;;;;15.20;10.13;;;11.30;99.90;;;;;;5131532;27;20126;-73
2023/04/16 06:59:30;;;;;;;14.93;9.73;;;11.30;99.90;;;;;;5131171;27;20451;-74
2023/04/16 07:01:56;;;;;;;15.40;9.00;;;11.40;99.90;;;;;;5131897;27;20109;-73
2023/04/16 07:04:22;;;;;;;17.02;11.63;;;11.40;99.90;;;;;;5131773;27;20110;-73
2023/04/16 07:06:48;;;;;;;14.30;10.15;;;11.50;99.90;;;;;;5131485;27;20166;-73
2023/04/16 07:09:14;;;;;;;15.40;10.70;;;11.50;99.90;;;;;;5131761;27;20451;-75
2023/04/16 07:11:40;;;;;;;18.95;14.70;;;11.50;99.90;;;;;;5131440;27;20047;-75
2023/04/16 07:14:07;;;;;;;18.67;13.60;;;11.60;99.90;;;;;;5131912;27;20031;-74
2023/04/16 07:16:32;;;;;;;18.63;13.02;;;11.60;99.90;;;;;;5131070;27;20020;-75
2023/04/16 07:18:58;;;;;;;20.08;16.08;;;11.70;99.90;;;;;;5131530;27;20027;-75
2023/04/16 07:21:25;;;;;;;17.15;14.45;;;11.70;99.90;;;;;;5131467;27;20020;-74
2023/04/16 07:23:50;;;;;;;16.17;13.23;;;11.80;99.90;;;;;;5130952;27;20552;-75
2023/04/16 07:26:16;;;;;;;24.48;20.88;;;11.80;99.90;;;;;;5131370;27;20122;-75
2023/04/16 07:28:42;;;;;;;26.75;22.02;;;11.90;99.90;;;;;;5131145;27;20453;-75
2023/04/16 07:31:08;;;;;;;26.55;23.75;;;12.00;99.90;;;;;;5131210;27;20019;-75
2023/04/16 07:33:33;;;;;;;29.70;23.73;;;12.00;99.90;;;;;;5131204;27;20019;-75
2023/04/16 07:35:59;;;;;;;20.75;18.52;;;12.10;99.90;;;;;;5131803;27;20033;-75
2023/04/16 07:38:25;;;;;;;20.10;17.50;;;12.20;99.90;;;;;;5134501;27;20018;-75
2023/04/16 07:40:51;;;;;;;20.00;16.10;;;12.30;99.90;;;;;;5139286;27;20458;-75
2023/04/16 07:43:16;;;;;;;14.23;10.45;;;12.30;99.90;;;;;;5145346;27;20081;-75
2023/04/16 07:45:42;;;;;;;15.55;7.03;;;12.40;99.90;;;;;;5141862;27;20103;-75
2023/04/16 07:48:08;;;;;;;10.35;5.45;;;12.40;99.90;;;;;;5139501;27;20027;-77
2023/04/16 07:50:33;;;;;;;12.00;4.10;;;12.60;99.90;;;;;;5117768;28;20113;-76
2023/04/16 07:52:59;;;;;;;7.50;2.83;;;12.70;99.90;;;;;;5131720;28;20059;-74
2023/04/16 07:55:25;;;;;;;8.70;2.63;;;12.80;99.90;;;;;;5130905;28;20497;-75
2023/04/16 07:57:51;;;;;;;8.25;2.72;;;12.90;99.90;;;;;;5112501;28;20019;-73
2023/04/16 08:00:16;;;;;;;12.10;2.63;;;12.90;99.90;;;;;;5131077;28;20038;-74
2023/04/16 08:02:43;;;;;;;5.32;2.15;;;13.00;99.90;;;;;;5133871;27;20042;-75
2023/04/16 08:05:09;;;;;;;9.57;2.47;;;13.10;99.90;;;;;;5135063;27;20034;-74
2023/04/16 08:07:35;;;;;;;8.95;2.33;;;13.20;99.90;;;;;;5134663;27;20020;-75
2023/04/16 08:10:01;;;;;;;8.63;2.33;;;13.20;99.90;;;;;;5134765;27;20029;-75
2023/04/16 08:12:27;;;;;;;6.22;2.28;;;13.30;99.90;;;;;;5134949;27;20042;-75
2023/04/16 08:14:53;;;;;;;9.82;2.22;;;13.40;99.90;;;;;;5134511;27;20027;-75
2023/04/16 08:17:19;;;;;;;7.38;2.30;;;13.40;99.90;;;;;;5134888;27;20110;-75
2023/04/16 08:19:45;;;;;;;8.52;3.00;;;13.40;99.90;;;;;;5115702;27;20030;-75
2023/04/16 08:22:13;;;;;;;8.52;2.97;;;13.40;99.90;;;;;;5136970;27;20053;-75
2023/04/16 08:24:40;;;;;;;5.20;2.35;;;13.40;99.90;;;;;;5133960;27;20055;-76
2023/04/16 08:27:05;;;;;;;6.05;2.45;;;13.50;99.90;;;;;;5135440;27;20027;-76
2023/04/16 08:29:31;;;;;;;4.03;2.20;;;13.50;99.90;;;;;;5155498;27;20023;-77
2023/04/16 08:31:58;;;;;;;4.05;2.45;;;13.50;99.90;;;;;;5155365;27;20030;-76
2023/04/16 08:34:24;;;;;;;7.63;2.45;;;13.50;99.90;;;;;;5155524;27;20030;-76
2023/04/16 08:36:49;;;;;;;4.20;2.35;;;13.60;99.90;;;;;;5154544;27;20091;-75
2023/04/16 08:39:15;;;;;;;9.32;3.72;;;13.70;99.90;;;;;;5155470;27;20030;-74
2023/04/16 08:41:44;;;;;;;9.38;5.13;;;13.70;99.90;;;;;;5154770;27;20431;-75
2023/04/16 08:44:29;;;;;;;6.22;3.00;;;13.70;99.90;;;;;;5155263;27;20073;-74
2023/04/16 08:46:57;;;;;;;7.55;2.33;;;13.70;99.90;;;;;;5154706;27;20031;-74
2023/04/16 08:49:25;;;;;;;9.90;4.07;;;13.80;99.90;;;;;;5155361;27;20031;-75
2023/04/16 08:51:55;;;;;;;5.43;2.42;;;13.80;99.90;;;;;;5154848;27;20027;-75
2023/04/16 08:54:40;;;;;;;7.40;2.80;;;13.90;99.90;;;;;;5155545;27;20026;-75
2023/04/16 08:57:10;;;;;;;6.10;2.95;;;14.00;99.90;;;;;;5137133;27;20494;-75
2023/04/16 08:59:37;;;;;;;6.22;2.30;;;14.20;99.90;;;;;;5154827;27;20030;-78
2023/04/16 09:02:05;;;;;;;4.40;1.92;;;14.30;99.90;;;;;;5155475;27;20026;-75
2023/04/16 09:04:31;;;;;;;4.13;1.67;;;14.50;99.90;;;;;;5155264;27;20035;-75
2023/04/16 09:06:57;;;;;;;6.43;2.17;;;14.50;99.90;;;;;;5154435;27;20087;-75
2023/04/16 09:09:26;;;;;;;7.75;2.72;;;14.60;99.90;;;;;;5154438;27;20018;-75
2023/04/16 09:11:52;;;;;;;6.93;2.42;;;14.80;99.90;;;;;;5153944;27;20065;-75
2023/04/16 09:14:19;;;;;;;7.35;2.10;;;14.90;99.90;;;;;;5153768;27;20049;-75
2023/04/16 09:16:48;;;;;;;8.07;2.30;;;15.00;99.90;;;;;;5147316;27;20023;-75
2023/04/16 09:19:15;;;;;;;7.70;2.30;;;15.10;99.90;;;;;;5141773;27;20023;-75
2023/04/16 09:21:41;;;;;;;7.22;2.20;;;15.20;99.90;;;;;;5124313;27;20460;-75
2023/04/16 09:24:08;;;;;;;4.30;2.15;;;15.20;99.90;;;;;;5133317;27;20131;-74
2023/04/16 09:26:35;;;;;;;6.78;2.40;;;15.30;99.90;;;;;;5133875;27;20517;-73
2023/04/16 09:29:01;;;;;;;6.38;2.22;;;15.30;99.90;;;;;;5133939;27;20019;-75
2023/04/16 09:31:26;;;;;;;6.90;2.55;;;15.40;99.90;;;;;;5138514;27;20382;-74
2023/04/16 09:34:04;;;;;;;8.35;2.45;;;15.40;99.90;;;;;;5133223;27;20034;-75
2023/04/16 09:36:31;;;;;;;6.85;2.00;;;15.40;99.90;;;;;;5133375;27;20417;-75
2023/04/16 09:39:03;;;;;;;10.50;2.95;;;15.50;99.90;;;;;;5133107;27;20106;-75
2023/04/16 09:41:31;;;;;;;7.07;2.97;;;15.60;99.90;;;;;;5115520;27;20413;-74
2023/04/16 09:43:57;;;;;;;6.57;2.15;;;15.60;99.90;;;;;;5133126;27;20131;-75
2023/04/16 09:46:32;;;;;;;6.10;2.45;;;15.70;99.90;;;;;;5134014;27;20143;-75
2023/04/16 09:49:14;;;;;;;7.50;2.33;;;15.80;99.90;;;;;;5133164;27;20084;-75
2023/04/16 09:51:41;;;;;;;9.00;2.13;;;15.80;99.90;;;;;;5132643;27;20023;-76
2023/04/16 09:54:08;;;;;;;8.82;2.35;;;15.70;99.90;;;;;;5133423;27;20043;-75
2023/04/16 09:56:42;;;;;;;6.65;1.95;;;15.80;99.90;;;;;;5133098;27;20384;-75
2023/04/16 09:59:18;;;;;;;11.60;2.60;;;15.90;99.90;;;;;;5133298;27;20020;-75
2023/04/16 10:01:48;;;;;;;6.22;1.70;;;15.90;99.90;;;;;;5132592;27;20147;-75
2023/04/16 10:04:14;;;;;;;10.68;2.50;;;15.90;99.90;;;;;;5133440;27;20133;-75
2023/04/16 10:06:40;;;;;;;7.47;2.00;;;15.90;99.90;;;;;;5114438;27;20371;-77
2023/04/16 10:09:07;;;;;;;10.32;2.35;;;16.00;99.90;;;;;;5133321;27;20094;-75
2023/04/16 10:11:33;;;;;;;10.57;2.50;;;15.90;99.90;;;;;;5114681;27;20023;-75
2023/04/16 10:13:59;;;;;;;10.00;2.25;;;15.90;99.90;;;;;;5132363;27;20763;-74
2023/04/16 10:16:25;;;;;;;10.27;2.30;;;15.90;99.90;;;;;;5133063;27;20055;-74
2023/04/16 10:18:53;;;;;;;9.18;2.28;;;16.00;99.90;;;;;;5132560;27;20168;-75
2023/04/16 10:21:20;;;;;;;6.05;2.03;;;16.20;99.90;;;;;;5132576;27;20498;-75
2023/04/16 10:23:48;;;;;;;4.50;2.03;;;16.30;99.90;;;;;;5131979;27;20506;-75
2023/04/16 10:26:16;;;;;;;10.85;2.65;;;16.30;99.90;;;;;;5132840;27;20067;-75
2023/04/16 10:28:44;;;;;;;11.73;2.30;;;16.40;99.90;;;;;;5132405;27;20387;-78
2023/04/16 10:31:11;;;;;;;5.63;2.13;;;16.30;99.90;;;;;;5135062;27;20023;-75
2023/04/16 10:33:40;;;;;;;8.75;2.33;;;16.40;99.90;;;;;;5132672;27;20023;-76
2023/04/16 10:36:14;;;;;;;8.43;2.08;;;16.40;99.90;;;;;;5114028;27;20027;-75
2023/04/16 10:38:49;;;;;;;6.95;2.20;;;16.40;99.90;;;;;;5132746;27;20039;-75
2023/04/16 10:41:15;;;;;;;7.80;2.30;;;16.40;99.90;;;;;;5132607;27;20027;-75
2023/04/16 10:43:45;;;;;;;8.90;2.40;;;16.30;99.90;;;;;;5132646;27;20145;-75
2023/04/16 10:46:22;;;;;;;10.30;2.30;;;16.30;99.90;;;;;;5132662;27;20027;-75
2023/04/16 10:48:52;;;;;;;9.25;2.60;;;16.30;99.90;;;;;;5113611;27;20023;-75
2023/04/16 10:51:32;;;;;;;9.10;2.22;;;16.30;99.90;;;;;;5132452;27;20023;-75
2023/04/16 10:54:08;;;;;;;9.30;2.40;;;16.30;99.90;;;;;;5132119;27;20387;-75
2023/04/16 10:56:36;;;;;;;12.43;2.97;;;16.20;99.90;;;;;;5132572;27;20015;-75
2023/04/16 10:59:05;;;;;;;10.25;2.33;;;16.30;99.90;;;;;;5132384;27;20080;-74
2023/04/16 11:01:42;;;;;;;10.68;2.55;;;16.40;99.90;;;;;;5132694;27;20033;-75
2023/04/16 11:04:20;;;;;;;8.98;2.83;;;16.40;99.90;;;;;;5113119;27;20084;-75
2023/04/16 11:07:10;;;;;;;6.30;1.95;;;16.50;99.90;;;;;;5130885;27;20098;-75
2023/04/16 11:09:55;;;;;;;12.07;2.22;;;16.70;99.90;;;;;;5131786;27;20067;-74
2023/04/16 11:12:43;;;;;;;10.73;2.28;;;16.70;99.90;;;;;;5131579;27;20038;-74
2023/04/16 11:15:10;;;;;;;9.85;2.53;;;16.90;99.90;;;;;;5131296;27;20062;-74
2023/04/16 11:17:44;;;;;;;7.50;2.28;;;17.00;99.90;;;;;;5131544;27;20027;-74
2023/04/16 11:20:21;;;;;;;6.90;2.30;;;17.10;99.90;;;;;;5131331;27;20034;-74
2023/04/16 11:22:49;;;;;;;8.32;2.15;;;17.20;99.90;;;;;;5111835;27;20031;-75
2023/04/16 11:25:25;;;;;;;6.15;2.05;;;17.20;99.90;;;;;;5131675;27;20440;-75
2023/04/16 11:27:52;;;;;;;8.88;2.55;;;17.40;99.90;;;;;;5130848;27;20069;-75
2023/04/16 11:30:27;;;;;;;7.45;1.80;;;17.50;99.90;;;;;;5131561;27;20023;-75
2023/04/16 11:32:52;;;;;;;8.60;2.10;;;17.70;99.90;;;;;;5131054;27;20059;-74
2023/04/16 11:35:18;;;;;;;4.93;2.03;;;17.80;99.90;;;;;;5131138;27;20069;-75
2023/04/16 11:37:47;;;;;;;8.30;2.10;;;17.70;99.90;;;;;;5130500;27;20027;-74
2023/04/16 11:40:13;;;;;;;7.32;2.58;;;17.70;99.90;;;;;;5112815;28;20050;-76
2023/04/16 11:42:39;;;;;;;6.75;2.08;;;17.60;99.90;;;;;;5130950;28;20027;-76
2023/04/16 11:45:10;;;;;;;8.73;2.20;;;17.60;99.90;;;;;;5130772;28;20661;-76
2023/04/16 11:47:44;;;;;;;5.88;1.60;;;17.70;99.90;;;;;;5130935;28;20058;-75
2023/04/16 11:50:19;;;;;;;9.27;2.50;;;17.50;99.90;;;;;;5130611;28;20035;-75
2023/04/16 11:52:45;;;;;;;12.77;3.15;;;17.40;99.90;;;;;;5112412;28;20328;-75
2023/04/16 11:55:11;;;;;;;5.18;2.00;;;17.40;99.90;;;;;;5130656;28;20019;-75
2023/04/16 11:57:37;;;;;;;8.20;2.30;;;17.50;99.90;;;;;;5115005;28;20031;-75
2023/04/16 12:00:12;;;;;;;6.63;2.45;;;17.60;99.90;;;;;;5130101;28;20034;-75
2023/04/16 12:02:43;;;;;;;4.50;1.77;;;17.70;99.90;;;;;;5130999;28;20492;-75
2023/04/16 12:05:34;;;;;;;7.68;2.03;;;17.70;99.90;;;;;;5130150;28;20034;-76
2023/04/16 12:08:08;;;;;;;5.78;1.95;;;17.60;99.90;;;;;;5130552;28;20030;-75
2023/04/16 12:10:35;;;;;;;6.43;1.90;;;17.60;99.90;;;;;;5131250;28;20019;-75
2023/04/16 12:13:11;;;;;;;8.15;1.92;;;17.60;99.90;;;;;;5112591;28;20050;-75
2023/04/16 12:16:15;;;;;;;5.82;2.10;;;17.60;99.90;;;;;;5131536;28;20100;-76
2023/04/16 12:19:02;;;;;;;5.40;1.80;;;17.50;99.90;;;;;;5130917;28;20024;-75
2023/04/16 12:21:45;;;;;;;7.38;2.42;;;17.70;99.90;;;;;;5131246;28;20028;-74
2023/04/16 12:24:15;;;;;;;8.73;2.30;;;17.70;99.90;;;;;;5129985;28;20321;-75
2023/04/16 12:26:47;;;;;;;5.13;2.17;;;17.90;99.90;;;;;;5112726;28;20023;-75
2023/04/16 12:29:22;;;;;;;6.22;2.10;;;17.90;99.90;;;;;;5130388;28;20075;-74
2023/04/16 12:31:49;;;;;;;9.02;2.20;;;17.90;99.90;;;;;;5130912;28;20329;-77
2023/04/16 12:34:16;;;;;;;8.65;1.98;;;18.10;99.90;;;;;;5130779;28;20027;-74
2023/04/16 12:36:43;;;;;;;8.63;2.30;;;18.10;99.90;;;;;;5112339;28;20051;-75
2023/04/16 12:39:09;;;;;;;7.38;2.22;;;18.20;99.90;;;;;;5130434;28;20027;-75
2023/04/16 12:41:37;;;;;;;5.50;1.98;;;18.20;99.90;;;;;;5130901;28;20098;-74